Time;durP1;ratioP1;P1;durP2;ratioP2;P2;SDS_P1;SDS_P2;PMS_P1;PMS_P2;Temp;Humidity;BMP_temperature;BMP_pressure;BME280_temperature;BME280_humidity;BME280_pressure;Samples;Min_cycle;Max_cycle;Signal;HPM_P1;HPM_P2
2022/08/25 00:01:58;;;;;;;4.80;4.40;;;22.70;35.60;;;;;;10572391;28;20633;-79
2022/08/25 00:07:05;;;;;;;4.20;3.90;;;22.60;35.50;;;;;;10572347;28;20246;-79
2022/08/25 00:12:08;;;;;;;4.43;4.13;;;22.60;35.80;;;;;;10574385;28;20238;-79
2022/08/25 00:17:11;;;;;;;4.50;4.10;;;22.50;35.30;;;;;;10573862;28;20233;-79
2022/08/25 00:22:16;;;;;;;3.63;3.43;;;22.40;35.30;;;;;;10575114;28;20586;-78
2022/08/25 00:27:19;;;;;;;4.13;3.73;;;22.30;35.60;;;;;;10573877;28;20223;-79
2022/08/25 00:32:24;;;;;;;4.43;4.03;;;22.20;35.40;;;;;;10579974;28;20595;-78
2022/08/25 00:37:29;;;;;;;4.60;4.20;;;22.10;35.50;;;;;;10580510;28;20233;-78
2022/08/25 00:42:32;;;;;;;4.57;4.17;;;22.00;36.00;;;;;;10581100;28;20263;-78
2022/08/25 00:47:35;;;;;;;3.97;3.67;;;22.00;35.80;;;;;;10579993;28;20564;-78
2022/08/25 00:52:44;;;;;;;3.90;3.60;;;21.90;35.90;;;;;;10579998;28;20253;-78
2022/08/25 00:57:52;;;;;;;4.30;4.00;;;21.90;36.80;;;;;;10580155;28;20646;-78
2022/08/25 01:02:56;;;;;;;4.60;4.20;;;21.90;36.40;;;;;;10580027;28;20726;-78
2022/08/25 01:08:02;;;;;;;3.83;3.53;;;21.80;35.90;;;;;;10581535;28;20227;-77
2022/08/25 01:13:13;;;;;;;3.93;3.73;;;21.70;36.30;;;;;;10586270;28;20298;-78
2022/08/25 01:18:19;;;;;;;4.40;4.10;;;21.60;36.50;;;;;;10589826;28;20242;-78
2022/08/25 01:23:25;;;;;;;3.53;3.33;;;21.60;36.40;;;;;;10588330;28;20242;-78
2022/08/25 01:28:28;;;;;;;3.50;3.30;;;21.60;36.80;;;;;;10586907;28;20227;-78
2022/08/25 01:33:31;;;;;;;4.80;4.40;;;21.50;36.40;;;;;;10587327;28;20242;-77
2022/08/25 01:38:36;;;;;;;3.83;3.53;;;21.50;36.60;;;;;;10587141;28;20237;-78
2022/08/25 01:43:39;;;;;;;4.50;4.10;;;21.40;36.90;;;;;;10587165;28;20243;-78
2022/08/25 01:48:42;;;;;;;4.47;3.90;;;21.40;36.60;;;;;;10587281;28;20631;-77
2022/08/25 01:53:47;;;;;;;4.10;3.77;;;21.40;36.60;;;;;;10586197;28;20227;-77
2022/08/25 01:58:50;;;;;;;4.37;4.07;;;21.30;37.20;;;;;;10583468;28;20223;-77
2022/08/25 02:03:55;;;;;;;3.93;3.73;;;21.30;36.70;;;;;;10586349;28;20239;-78
2022/08/25 02:09:04;;;;;;;4.23;3.93;;;21.20;37.40;;;;;;10585802;28;20227;-78
2022/08/25 02:14:08;;;;;;;4.37;3.97;;;21.20;37.60;;;;;;10586769;28;20236;-77
2022/08/25 02:19:12;;;;;;;3.80;3.53;;;21.20;37.10;;;;;;10585951;28;20230;-78
2022/08/25 02:24:17;;;;;;;4.07;3.77;;;21.20;37.40;;;;;;10585919;28;20235;-77
2022/08/25 02:29:20;;;;;;;3.90;3.60;;;21.10;37.60;;;;;;10585341;28;20226;-78
2022/08/25 02:34:23;;;;;;;3.60;3.30;;;21.00;37.30;;;;;;10585665;28;20238;-77
2022/08/25 02:39:28;;;;;;;4.20;3.80;;;21.00;37.40;;;;;;10585280;28;20229;-78
2022/08/25 02:44:31;;;;;;;3.40;3.20;;;20.90;37.30;;;;;;10584201;28;20231;-78
2022/08/25 02:49:35;;;;;;;4.03;3.73;;;20.90;37.30;;;;;;10584359;28;20229;-78
2022/08/25 02:54:39;;;;;;;4.70;4.30;;;20.90;37.30;;;;;;10584362;28;20778;-79
2022/08/25 02:59:46;;;;;;;4.77;4.27;;;20.90;37.30;;;;;;10583666;28;20231;-78
2022/08/25 03:04:49;;;;;;;4.83;4.50;;;20.90;37.30;;;;;;10584138;28;20605;-78
2022/08/25 03:09:54;;;;;;;4.33;4.03;;;20.80;37.20;;;;;;10583065;28;20226;-79
2022/08/25 03:14:57;;;;;;;4.40;4.00;;;20.70;37.10;;;;;;10583140;28;20237;-78
2022/08/25 03:20:00;;;;;;;3.80;3.50;;;20.70;37.10;;;;;;10582652;28;20334;-79
2022/08/25 03:30:28;;;;;;;4.37;3.80;;;20.60;37.40;;;;;;10582671;28;20727;-78
2022/08/25 03:35:31;;;;;;;3.30;3.10;;;20.50;36.90;;;;;;10581629;28;20230;-78
2022/08/25 03:40:36;;;;;;;5.87;4.77;;;20.40;36.90;;;;;;10581874;28;20238;-77
2022/08/25 03:45:40;;;;;;;4.43;4.03;;;20.30;37.80;;;;;;10581338;28;20234;-78
2022/08/25 03:50:45;;;;;;;4.53;4.23;;;20.20;37.60;;;;;;10578830;28;20230;-78
2022/08/25 03:55:56;;;;;;;3.57;3.37;;;20.20;37.80;;;;;;10577643;28;20222;-78
2022/08/25 04:00:59;;;;;;;3.80;3.50;;;20.10;37.90;;;;;;10580880;28;20635;-78
2022/08/25 04:06:03;;;;;;;3.73;3.43;;;20.10;37.60;;;;;;10580742;28;20234;-78
2022/08/25 04:11:10;;;;;;;4.63;4.23;;;20.10;37.70;;;;;;10581593;28;20226;-78
2022/08/25 04:16:16;;;;;;;3.77;3.57;;;20.20;38.40;;;;;;10581067;28;20610;-78
2022/08/25 04:21:20;;;;;;;4.30;4.00;;;20.10;37.80;;;;;;10581081;28;20423;-78
2022/08/25 04:26:27;;;;;;;3.73;3.43;;;20.10;37.90;;;;;;10580972;28;20269;-78
2022/08/25 04:31:31;;;;;;;3.57;3.27;;;20.00;38.30;;;;;;10580756;28;20235;-78
2022/08/25 04:36:35;;;;;;;4.77;3.37;;;20.00;38.00;;;;;;10573550;28;20223;-78
2022/08/25 04:41:40;;;;;;;3.63;3.43;;;20.00;38.20;;;;;;10581490;28;20226;-78
2022/08/25 04:46:43;;;;;;;4.20;3.67;;;20.00;38.50;;;;;;10586111;28;20230;-78
2022/08/25 04:51:46;;;;;;;3.87;3.57;;;20.00;38.20;;;;;;10589375;28;20231;-79
2022/08/25 04:56:52;;;;;;;3.73;3.43;;;20.00;38.20;;;;;;10589654;28;20223;-78
2022/08/25 05:02:02;;;;;;;3.57;3.37;;;20.00;38.80;;;;;;10589328;28;20238;-78
2022/08/25 05:07:05;;;;;;;4.40;4.00;;;20.00;38.40;;;;;;10588248;28;20310;-78
2022/08/25 05:12:10;;;;;;;4.97;4.60;;;20.00;38.50;;;;;;10588061;28;20230;-79
2022/08/25 05:17:14;;;;;;;4.90;4.50;;;20.00;39.40;;;;;;10588925;28;20258;-78
2022/08/25 05:22:17;;;;;;;5.03;4.63;;;20.00;38.80;;;;;;10587679;28;20601;-78
2022/08/25 05:27:22;;;;;;;5.37;4.90;;;20.00;38.90;;;;;;10587791;28;20231;-78
2022/08/25 05:32:25;;;;;;;6.40;5.90;;;20.10;39.50;;;;;;10587714;28;20231;-78
2022/08/25 05:37:28;;;;;;;7.23;6.57;;;20.10;39.60;;;;;;10587545;28;20847;-79
2022/08/25 05:42:33;;;;;;;6.30;5.80;;;20.10;39.80;;;;;;10587103;28;20227;-78
2022/08/25 05:47:36;;;;;;;7.67;6.77;;;20.10;40.30;;;;;;10587514;28;20731;-78
2022/08/25 05:52:39;;;;;;;7.27;6.67;;;20.20;40.30;;;;;;10581113;28;20260;-77
2022/08/25 05:57:44;;;;;;;7.57;6.97;;;20.20;40.60;;;;;;10586145;28;20222;-78
2022/08/25 06:02:48;;;;;;;8.10;7.43;;;20.30;41.90;;;;;;10586878;28;20692;-78
2022/08/25 06:07:52;;;;;;;8.23;7.53;;;20.30;41.40;;;;;;10586699;28;20230;-78
2022/08/25 06:12:57;;;;;;;8.40;7.70;;;20.40;42.30;;;;;;10585617;28;20231;-77
2022/08/25 06:18:01;;;;;;;9.20;8.30;;;20.40;43.00;;;;;;10586138;28;20271;-78
2022/08/25 06:23:05;;;;;;;9.30;8.50;;;20.50;42.50;;;;;;10584988;28;20310;-79
2022/08/25 06:28:10;;;;;;;9.87;8.97;;;20.60;42.70;;;;;;10584142;28;20241;-78
2022/08/25 06:33:13;;;;;;;9.80;8.90;;;20.70;44.00;;;;;;10585057;28;20231;-78
2022/08/25 06:38:16;;;;;;;9.07;8.37;;;20.80;43.30;;;;;;10584375;28;20226;-77
2022/08/25 06:43:22;;;;;;;8.80;8.00;;;20.90;43.40;;;;;;10584313;28;20223;-78
2022/08/25 06:48:25;;;;;;;8.57;7.87;;;21.00;44.70;;;;;;10554874;28;20228;-77
2022/08/25 06:53:28;;;;;;;9.13;8.23;;;21.10;43.70;;;;;;10542021;28;20235;-78
2022/08/25 06:58:33;;;;;;;8.37;7.67;;;21.30;43.80;;;;;;10542191;28;20245;-77
2022/08/25 07:03:37;;;;;;;8.33;7.53;;;21.40;44.70;;;;;;10541406;28;20235;-77
2022/08/25 07:08:40;;;;;;;8.93;7.30;;;21.60;44.10;;;;;;10541876;28;20235;-77
2022/08/25 07:13:45;;;;;;;8.63;7.83;;;21.70;44.00;;;;;;10541573;28;20239;-78
2022/08/25 07:18:49;;;;;;;8.73;7.93;;;21.90;45.30;;;;;;10569175;28;20384;-78
2022/08/25 07:23:52;;;;;;;8.57;7.87;;;22.00;44.40;;;;;;10582716;28;20770;-77
2022/08/25 07:28:58;;;;;;;9.07;8.27;;;22.20;44.70;;;;;;10582913;28;20226;-78
2022/08/25 07:39:23;;;;;;;9.63;8.83;;;22.60;44.80;;;;;;10537704;28;20270;-77
2022/08/25 07:44:28;;;;;;;9.13;8.30;;;22.90;44.80;;;;;;10559926;28;20607;-77
2022/08/25 07:49:31;;;;;;;9.73;8.60;;;23.20;45.20;;;;;;10565727;28;20314;-77
2022/08/25 07:54:42;;;;;;;9.63;8.83;;;23.50;44.60;;;;;;10537965;28;20242;-78
2022/08/25 07:59:50;;;;;;;9.07;8.37;;;23.70;44.10;;;;;;10531335;28;20239;-77
2022/08/25 08:04:54;;;;;;;8.50;7.80;;;24.00;44.20;;;;;;10540671;28;20242;-77
2022/08/25 08:09:58;;;;;;;9.57;8.87;;;24.30;44.00;;;;;;10539527;28;20238;-78
2022/08/25 08:15:23;;;;;;;8.50;7.80;;;24.50;43.60;;;;;;10549426;28;20242;-78
2022/08/25 08:20:30;;;;;;;8.60;7.90;;;24.80;43.30;;;;;;10572121;28;20231;-77
2022/08/25 08:26:09;;;;;;;8.57;7.87;;;25.10;43.00;;;;;;10537175;28;20238;-77
2022/08/25 08:31:14;;;;;;;9.23;8.43;;;25.40;43.00;;;;;;10538663;28;20226;-78
2022/08/25 08:36:18;;;;;;;8.37;7.57;;;25.70;42.40;;;;;;10538785;28;20235;-77
2022/08/25 08:47:26;;;;;;;7.70;7.10;;;26.20;41.70;;;;;;10566979;28;20235;-78
2022/08/25 08:52:37;;;;;;;8.90;8.03;;;26.50;41.20;;;;;;10555153;28;20234;-78
2022/08/25 08:57:46;;;;;;;8.10;7.47;;;26.80;40.70;;;;;;10582139;28;20311;-77
2022/08/25 09:03:02;;;;;;;8.10;7.40;;;27.00;40.50;;;;;;10582956;28;20306;-78
2022/08/25 09:08:11;;;;;;;8.30;7.70;;;27.20;39.60;;;;;;10566546;28;20284;-77
2022/08/25 09:13:24;;;;;;;8.40;7.60;;;27.40;39.40;;;;;;10540627;28;20234;-76
2022/08/25 09:18:39;;;;;;;8.03;7.43;;;27.50;38.90;;;;;;10570629;28;20655;-76
2022/08/25 09:24:09;;;;;;;8.10;7.47;;;27.60;38.30;;;;;;10536413;28;20230;-76
2022/08/25 09:29:17;;;;;;;8.03;7.33;;;27.70;38.90;;;;;;10550007;28;20262;-76
2022/08/25 09:34:27;;;;;;;8.27;7.67;;;27.80;39.10;;;;;;10533367;28;20235;-76
2022/08/25 09:39:30;;;;;;;8.43;7.73;;;28.00;37.90;;;;;;10541283;28;20230;-76
2022/08/25 09:44:39;;;;;;;7.97;7.27;;;28.10;37.90;;;;;;10560335;28;20237;-75
2022/08/25 09:49:47;;;;;;;8.40;7.70;;;28.20;37.40;;;;;;10551944;28;20621;-75
2022/08/25 09:54:51;;;;;;;7.77;7.13;;;28.40;37.00;;;;;;10551444;28;20233;-76
2022/08/25 09:59:55;;;;;;;8.30;7.60;;;28.50;37.20;;;;;;10576890;28;20305;-76
2022/08/25 10:05:18;;;;;;;7.80;7.10;;;28.60;36.50;;;;;;10568178;28;20254;-76
2022/08/25 10:10:30;;;;;;;7.90;7.20;;;28.70;35.90;;;;;;10576331;28;20225;-76
2022/08/25 10:15:37;;;;;;;7.23;6.63;;;28.70;35.20;;;;;;10552986;28;20285;-76
2022/08/25 10:20:42;;;;;;;7.37;6.77;;;28.70;35.20;;;;;;10534161;28;20346;-76
2022/08/25 10:25:50;;;;;;;7.83;7.20;;;28.70;35.10;;;;;;10550020;28;20226;-77
2022/08/25 10:31:10;;;;;;;7.63;6.90;;;28.70;35.00;;;;;;10573265;28;20264;-77
2022/08/25 10:36:20;;;;;;;8.23;7.30;;;28.80;34.80;;;;;;10536450;28;20231;-76
2022/08/25 10:41:47;;;;;;;7.70;7.00;;;28.80;34.80;;;;;;10574993;28;20235;-77
2022/08/25 10:47:02;;;;;;;7.70;7.00;;;28.90;34.60;;;;;;10574525;28;20940;-76
2022/08/25 10:52:16;;;;;;;7.43;6.83;;;28.90;34.10;;;;;;10538189;28;20235;-75
2022/08/25 10:57:27;;;;;;;8.27;7.47;;;29.00;34.10;;;;;;10531951;28;20234;-77
2022/08/25 11:03:04;;;;;;;8.10;7.30;;;29.00;34.00;;;;;;10537806;28;20724;-77
2022/08/25 11:08:13;;;;;;;9.30;7.07;;;29.00;34.30;;;;;;10537937;28;20227;-76
2022/08/25 11:13:23;;;;;;;9.27;7.00;;;29.10;33.50;;;;;;10548360;28;20238;-77
2022/08/25 11:18:30;;;;;;;9.23;7.13;;;29.10;33.40;;;;;;10531665;28;20228;-77
2022/08/25 11:23:38;;;;;;;8.10;7.30;;;29.20;33.80;;;;;;10560229;28;20243;-74
2022/08/25 11:28:52;;;;;;;7.43;6.70;;;29.20;33.10;;;;;;10539370;28;20231;-75
2022/08/25 11:33:56;;;;;;;8.57;7.27;;;29.30;33.30;;;;;;10548582;28;20234;-77
2022/08/25 11:39:16;;;;;;;10.57;7.30;;;29.40;33.70;;;;;;10572584;28;20764;-77
2022/08/25 11:44:45;;;;;;;9.67;7.47;;;29.40;33.30;;;;;;10572434;28;20235;-75
2022/08/25 11:50:02;;;;;;;10.50;7.43;;;29.60;33.20;;;;;;10530386;28;20770;-77
2022/08/25 11:55:11;;;;;;;10.37;7.37;;;29.70;32.60;;;;;;10529204;28;20223;-77
2022/08/25 12:00:34;;;;;;;8.90;7.63;;;29.80;32.40;;;;;;10530139;28;20227;-77
2022/08/25 12:05:52;;;;;;;9.00;7.60;;;29.90;32.90;;;;;;10553659;28;20238;-77
2022/08/25 12:11:02;;;;;;;9.87;7.30;;;30.00;31.60;;;;;;10571963;28;20230;-76
2022/08/25 12:16:40;;;;;;;9.47;6.80;;;30.10;31.60;;;;;;10551470;28;20223;-77
2022/08/25 12:21:45;;;;;;;11.33;7.40;;;30.20;31.70;;;;;;10554202;28;20227;-77
2022/08/25 12:26:57;;;;;;;9.27;7.80;;;30.20;31.70;;;;;;10564934;28;20777;-75
2022/08/25 12:32:18;;;;;;;11.63;7.97;;;30.20;31.70;;;;;;10555834;28;20744;-77
2022/08/25 12:37:23;;;;;;;8.37;7.17;;;30.20;31.70;;;;;;10533011;28;20234;-75
2022/08/25 12:42:34;;;;;;;8.50;7.07;;;30.30;31.70;;;;;;10567984;28;20234;-77
2022/08/25 12:47:41;;;;;;;13.93;7.97;;;30.30;30.50;;;;;;10530525;28;20267;-77
2022/08/25 12:52:48;;;;;;;8.47;7.50;;;30.40;31.20;;;;;;10570450;28;20243;-77
2022/08/25 12:57:59;;;;;;;11.03;8.17;;;30.40;31.10;;;;;;10553922;28;20227;-77
2022/08/25 13:03:38;;;;;;;12.67;8.20;;;30.50;30.30;;;;;;10570691;28;20816;-75
2022/08/25 13:09:19;;;;;;;13.30;7.60;;;30.50;30.60;;;;;;10543237;28;20634;-77
2022/08/25 13:14:33;;;;;;;12.13;7.70;;;30.50;30.50;;;;;;10512406;28;20360;-76
2022/08/25 13:19:40;;;;;;;8.40;6.90;;;30.50;30.00;;;;;;10536382;28;20326;-76
2022/08/25 13:24:45;;;;;;;9.73;7.27;;;30.50;30.10;;;;;;10577079;28;20313;-76
2022/08/25 13:29:56;;;;;;;11.27;6.83;;;30.50;29.70;;;;;;10536025;28;20242;-77
2022/08/25 13:35:15;;;;;;;10.33;7.00;;;30.50;29.40;;;;;;10536036;28;20228;-76
2022/08/25 13:40:25;;;;;;;12.13;7.33;;;30.60;29.30;;;;;;10564905;28;20238;-76
2022/08/25 13:45:35;;;;;;;9.37;6.93;;;30.60;29.20;;;;;;10571900;28;20239;-76
2022/08/25 13:50:43;;;;;;;10.17;7.17;;;30.70;28.90;;;;;;10543372;28;20240;-77
2022/08/25 13:55:57;;;;;;;10.10;7.53;;;30.70;29.50;;;;;;10534921;28;20573;-77
2022/08/25 14:01:08;;;;;;;11.57;7.33;;;30.70;29.20;;;;;;10551396;28;20224;-76
2022/08/25 14:06:32;;;;;;;7.40;6.67;;;30.80;28.80;;;;;;10542652;28;20227;-77
2022/08/25 14:11:43;;;;;;;10.90;7.50;;;30.90;28.90;;;;;;10534626;28;20314;-76
2022/08/25 14:16:50;;;;;;;10.10;6.83;;;30.90;28.10;;;;;;10534471;28;20246;-77
2022/08/25 14:22:00;;;;;;;8.53;7.30;;;30.90;28.50;;;;;;10533926;28;20239;-77
2022/08/25 14:27:05;;;;;;;11.30;6.90;;;31.00;28.60;;;;;;10533892;28;20715;-77
2022/08/25 14:32:10;;;;;;;8.30;6.53;;;31.10;28.60;;;;;;10533577;28;20238;-77
2022/08/25 14:37:17;;;;;;;8.20;6.63;;;31.10;27.80;;;;;;10539321;28;20231;-76
2022/08/25 14:42:21;;;;;;;9.80;6.60;;;31.20;27.80;;;;;;10562811;28;20657;-77
2022/08/25 14:47:30;;;;;;;10.80;6.67;;;31.30;28.10;;;;;;10574936;28;20250;-77
2022/08/25 14:52:34;;;;;;;10.30;6.37;;;31.30;27.60;;;;;;10574779;28;20231;-77
2022/08/25 14:57:37;;;;;;;7.70;6.10;;;31.30;27.60;;;;;;10559513;28;20235;-77
2022/08/25 15:02:45;;;;;;;9.80;6.97;;;31.40;27.60;;;;;;10557286;28;20319;-77
2022/08/25 15:13:09;;;;;;;10.60;6.90;;;31.40;27.80;;;;;;10568022;28;20305;-77
2022/08/25 15:18:14;;;;;;;8.20;6.70;;;31.50;27.90;;;;;;10573792;28;20227;-77
2022/08/25 15:23:18;;;;;;;8.27;7.20;;;31.50;27.70;;;;;;10571836;28;20227;-76
2022/08/25 15:28:21;;;;;;;11.27;6.17;;;31.50;27.80;;;;;;10568743;28;20223;-76
2022/08/25 15:33:29;;;;;;;10.13;6.30;;;31.60;27.80;;;;;;10539542;28;20281;-76
2022/08/25 15:38:33;;;;;;;10.10;6.97;;;31.50;27.00;;;;;;10541915;28;20293;-76
2022/08/25 15:43:36;;;;;;;8.43;6.50;;;31.50;27.30;;;;;;10562543;28;20604;-77
2022/08/25 15:48:41;;;;;;;8.23;5.97;;;31.40;27.30;;;;;;10540938;28;20729;-76
2022/08/25 15:53:44;;;;;;;7.93;6.00;;;31.40;27.20;;;;;;10555801;28;20753;-76
2022/08/25 15:58:48;;;;;;;9.63;5.80;;;31.40;27.60;;;;;;10550396;28;20246;-75
2022/08/25 16:03:54;;;;;;;6.63;5.37;;;31.40;27.50;;;;;;10554150;28;20305;-76
2022/08/25 16:08:58;;;;;;;6.37;5.17;;;31.40;27.00;;;;;;10547184;28;20239;-76
2022/08/25 16:14:02;;;;;;;6.90;5.53;;;31.40;27.10;;;;;;10537799;28;20864;-75
2022/08/25 16:19:06;;;;;;;9.70;5.33;;;31.40;27.40;;;;;;10540861;28;20670;-76
2022/08/25 16:24:09;;;;;;;11.23;6.03;;;31.40;27.40;;;;;;10551743;28;20231;-77
2022/08/25 16:29:13;;;;;;;6.70;5.80;;;31.40;27.50;;;;;;10551925;28;20239;-77
2022/08/25 16:34:18;;;;;;;7.07;5.53;;;31.40;27.70;;;;;;10549027;28;20228;-76
2022/08/25 16:39:22;;;;;;;9.43;5.20;;;31.40;27.40;;;;;;10550022;28;20219;-76
2022/08/25 16:44:26;;;;;;;8.67;5.17;;;31.30;27.20;;;;;;10565205;28;20239;-76
2022/08/25 16:49:30;;;;;;;5.90;5.10;;;31.30;27.20;;;;;;10556966;28;20241;-76
2022/08/25 16:59:54;;;;;;;8.67;5.53;;;31.20;27.20;;;;;;10553928;28;20277;-76
2022/08/25 17:04:59;;;;;;;6.37;5.40;;;31.10;27.40;;;;;;10550760;28;20651;-77
2022/08/25 17:10:04;;;;;;;7.83;5.10;;;31.00;27.60;;;;;;10559391;28;20224;-75
2022/08/25 17:15:08;;;;;;;5.80;5.00;;;30.90;28.20;;;;;;10557992;28;20222;-77
2022/08/25 17:20:12;;;;;;;7.40;5.23;;;30.90;27.60;;;;;;10559373;28;20614;-76
2022/08/25 17:25:16;;;;;;;9.27;5.23;;;30.80;27.50;;;;;;10555631;28;20251;-76
2022/08/25 17:30:20;;;;;;;8.10;5.40;;;30.70;27.80;;;;;;10552519;28;20222;-76
2022/08/25 17:35:25;;;;;;;6.50;5.27;;;30.60;27.80;;;;;;10555857;28;20703;-76
2022/08/25 17:40:28;;;;;;;6.53;5.20;;;30.60;27.90;;;;;;10547426;28;20227;-76
2022/08/25 17:45:32;;;;;;;8.53;5.13;;;30.50;28.80;;;;;;10555582;28;20716;-76
2022/08/25 17:50:37;;;;;;;6.50;5.67;;;30.40;28.80;;;;;;10553648;28;20242;-76
2022/08/25 17:55:42;;;;;;;6.80;5.23;;;30.30;29.00;;;;;;10554489;28;20234;-76
2022/08/25 18:00:45;;;;;;;6.27;5.50;;;30.30;29.10;;;;;;10561298;28;20300;-76
2022/08/25 18:05:50;;;;;;;8.63;5.77;;;30.20;29.30;;;;;;10557537;28;20230;-76
2022/08/25 18:10:54;;;;;;;6.80;6.20;;;30.20;29.70;;;;;;10554248;28;20246;-76
2022/08/25 18:15:57;;;;;;;6.83;6.23;;;30.00;29.40;;;;;;10554190;28;20219;-76
2022/08/25 18:21:01;;;;;;;7.33;6.20;;;29.90;29.70;;;;;;10553891;28;20229;-75
2022/08/25 18:26:05;;;;;;;8.00;6.47;;;29.70;30.00;;;;;;10555913;28;20218;-76
2022/08/25 18:31:10;;;;;;;6.40;5.80;;;29.50;30.00;;;;;;10549555;28;20235;-76
2022/08/25 18:36:16;;;;;;;8.43;6.47;;;29.40;30.00;;;;;;10548856;28;20725;-75
2022/08/25 18:41:20;;;;;;;10.17;6.53;;;29.30;30.70;;;;;;10551833;28;20787;-76
2022/08/25 18:46:23;;;;;;;8.50;6.20;;;29.20;30.50;;;;;;10554848;28;20234;-76
2022/08/25 18:51:28;;;;;;;9.43;6.20;;;29.10;30.90;;;;;;10548203;28;20231;-76
2022/08/25 18:56:35;;;;;;;7.67;6.87;;;29.00;30.90;;;;;;10544065;28;20250;-77
2022/08/25 19:01:40;;;;;;;7.93;6.70;;;28.90;30.80;;;;;;10550190;28;20591;-76
2022/08/25 19:06:45;;;;;;;7.30;6.10;;;28.80;30.70;;;;;;10551044;28;20312;-76
2022/08/25 19:11:48;;;;;;;7.63;6.83;;;28.70;30.60;;;;;;10554426;28;20719;-77
2022/08/25 19:16:52;;;;;;;8.77;6.10;;;28.50;30.50;;;;;;10557617;28;20588;-76
2022/08/25 19:21:57;;;;;;;9.60;7.00;;;28.50;30.70;;;;;;10551762;28;20222;-76
2022/08/25 19:27:02;;;;;;;7.60;6.30;;;28.40;31.60;;;;;;10555555;28;20288;-76
2022/08/25 19:32:05;;;;;;;6.10;5.50;;;28.30;31.20;;;;;;10545620;28;20231;-76
2022/08/25 19:37:12;;;;;;;7.70;6.80;;;28.20;31.40;;;;;;10550952;28;20323;-76
2022/08/25 19:42:15;;;;;;;9.53;7.17;;;28.10;32.10;;;;;;10543887;28;20227;-76
2022/08/25 19:47:40;;;;;;;8.07;6.17;;;28.10;31.90;;;;;;10550491;28;20749;-76
2022/08/25 19:52:45;;;;;;;7.00;6.30;;;27.90;32.00;;;;;;10552390;28;20262;-76
2022/08/25 19:57:52;;;;;;;9.20;6.57;;;27.80;32.40;;;;;;10552940;28;20231;-76
2022/08/25 20:02:56;;;;;;;7.07;6.30;;;27.70;32.20;;;;;;10544637;28;20239;-76
2022/08/25 20:08:01;;;;;;;9.17;6.73;;;27.60;32.40;;;;;;10550932;28;20288;-76
2022/08/25 20:13:05;;;;;;;6.53;6.03;;;27.50;33.20;;;;;;10551353;28;20762;-76
2022/08/25 20:18:09;;;;;;;8.37;6.67;;;27.40;32.80;;;;;;10546681;28;20230;-75
2022/08/25 20:28:34;;;;;;;7.10;6.50;;;27.30;33.20;;;;;;10552176;28;20605;-76
2022/08/25 20:33:37;;;;;;;6.63;5.83;;;27.20;33.00;;;;;;10556866;28;20711;-76
2022/08/25 20:38:43;;;;;;;8.67;6.40;;;27.10;33.00;;;;;;10548319;28;20254;-76
2022/08/25 20:43:47;;;;;;;9.13;7.47;;;27.00;33.70;;;;;;10548900;28;20235;-76
2022/08/25 20:48:50;;;;;;;9.03;7.37;;;26.90;33.50;;;;;;10552335;28;20714;-76
2022/08/25 20:53:55;;;;;;;7.30;6.60;;;26.90;33.50;;;;;;10548755;28;20323;-75
2022/08/25 20:58:59;;;;;;;8.03;7.23;;;26.80;33.70;;;;;;10545653;28;20246;-76
2022/08/25 21:04:03;;;;;;;7.23;6.53;;;26.80;33.80;;;;;;10556887;28;20234;-76
2022/08/25 21:09:10;;;;;;;11.83;7.60;;;26.70;33.80;;;;;;10551821;28;20226;-76
2022/08/25 21:14:18;;;;;;;8.10;6.80;;;26.70;34.50;;;;;;10546701;28;20223;-76
2022/08/25 21:19:24;;;;;;;8.57;6.47;;;26.60;33.90;;;;;;10547925;28;20231;-76
2022/08/25 21:24:33;;;;;;;7.50;6.90;;;26.50;34.10;;;;;;10548331;28;20326;-75
2022/08/25 21:29:37;;;;;;;9.00;7.60;;;26.50;34.30;;;;;;10555004;28;20216;-76
2022/08/25 21:34:51;;;;;;;7.30;6.60;;;26.40;34.20;;;;;;10560833;28;20221;-76
2022/08/25 21:39:56;;;;;;;7.80;7.00;;;26.30;34.90;;;;;;10558211;28;21003;-76
2022/08/25 21:45:00;;;;;;;8.33;7.53;;;26.20;34.60;;;;;;10561589;28;20240;-75
2022/08/25 21:50:05;;;;;;;8.23;7.43;;;26.10;34.40;;;;;;10550570;28;20265;-75
2022/08/25 21:55:11;;;;;;;7.83;7.00;;;26.10;34.60;;;;;;10555813;28;20226;-76
2022/08/25 22:00:18;;;;;;;7.73;6.93;;;26.00;35.10;;;;;;10549836;28;20227;-76
2022/08/25 22:05:23;;;;;;;11.20;7.30;;;25.90;34.70;;;;;;10554830;28;20230;-75
2022/08/25 22:10:27;;;;;;;7.30;6.37;;;25.90;34.90;;;;;;10553898;28;20634;-76
2022/08/25 22:15:31;;;;;;;7.90;7.13;;;25.80;35.10;;;;;;10557937;28;20227;-76
2022/08/25 22:20:34;;;;;;;8.17;6.83;;;25.80;34.90;;;;;;10557481;28;20231;-76
2022/08/25 22:25:43;;;;;;;7.97;7.17;;;25.70;34.80;;;;;;10557115;28;20293;-76
2022/08/25 22:30:46;;;;;;;11.63;7.87;;;25.70;35.40;;;;;;10548098;28;20231;-76
2022/08/25 22:35:49;;;;;;;8.03;6.93;;;25.60;35.10;;;;;;10557456;28;20235;-77
2022/08/25 22:41:03;;;;;;;8.20;7.30;;;25.50;35.20;;;;;;10546261;28;20246;-76
2022/08/25 22:46:08;;;;;;;7.87;7.10;;;25.40;35.50;;;;;;10547524;28;20227;-76
2022/08/25 22:51:16;;;;;;;9.50;7.70;;;25.30;35.30;;;;;;10549726;28;20231;-76
2022/08/25 22:56:29;;;;;;;8.63;7.63;;;25.20;36.00;;;;;;10561944;28;20224;-76
2022/08/25 23:01:33;;;;;;;11.33;8.30;;;25.20;36.40;;;;;;10550756;28;20230;-76
2022/08/25 23:06:36;;;;;;;8.83;8.03;;;25.10;35.90;;;;;;10554147;28;20223;-76
2022/08/25 23:11:41;;;;;;;8.30;7.60;;;25.00;35.70;;;;;;10545688;28;20593;-76
2022/08/25 23:16:44;;;;;;;8.53;7.43;;;24.90;36.10;;;;;;10548606;28;20229;-76
2022/08/25 23:27:11;;;;;;;8.47;7.40;;;24.70;36.20;;;;;;10547119;28;20229;-76
2022/08/25 23:32:14;;;;;;;7.80;7.00;;;24.60;36.60;;;;;;10559802;28;20781;-77
2022/08/25 23:37:18;;;;;;;8.80;7.73;;;24.60;36.30;;;;;;10553168;28;20307;-76
2022/08/25 23:42:23;;;;;;;9.40;7.87;;;24.50;36.40;;;;;;10551572;28;20281;-76
2022/08/25 23:47:26;;;;;;;7.50;6.87;;;24.40;36.90;;;;;;10554203;28;20227;-76
2022/08/25 23:52:29;;;;;;;8.37;7.13;;;24.30;36.60;;;;;;10545070;28;20254;-76
2022/08/25 23:57:35;;;;;;;9.10;7.80;;;24.10;36.80;;;;;;10551157;28;20313;-76
